sensor_id;sensor_type;location;lat;lon;timestamp;pressure;altitude;pressure_sealevel;temperature;humidity
51452;BME280;37521;52.020;-1.740;2023-02-22T00:00:44;99516.22;;;4.00;100.00
51452;BME280;37521;52.020;-1.740;2023-02-22T00:03:17;99518.97;;;3.96;100.00
51452;BME280;37521;52.020;-1.740;2023-02-22T00:05:52;99513.91;;;3.90;100.00
51452;BME280;37521;52.020;-1.740;2023-02-22T00:08:23;99503.63;;;3.83;100.00
51452;BME280;37521;52.020;-1.740;2023-02-22T00:10:56;99498.41;;;3.83;100.00
51452;BME280;37521;52.020;-1.740;2023-02-22T00:13:26;99502.00;;;3.79;100.00
51452;BME280;37521;52.020;-1.740;2023-02-22T00:15:55;99492.50;;;3.77;100.00
51452;BME280;37521;52.020;-1.740;2023-02-22T00:18:24;99489.97;;;3.74;100.00
51452;BME280;37521;52.020;-1.740;2023-02-22T00:20:54;99494.31;;;3.73;100.00
51452;BME280;37521;52.020;-1.740;2023-02-22T00:23:27;99490.06;;;3.71;100.00
51452;BME280;37521;52.020;-1.740;2023-02-22T00:25:57;99485.72;;;3.70;100.00
51452;BME280;37521;52.020;-1.740;2023-02-22T00:28:26;99476.22;;;3.67;100.00
51452;BME280;37521;52.020;-1.740;2023-02-22T00:30:56;99477.06;;;3.69;100.00
51452;BME280;37521;52.020;-1.740;2023-02-22T00:33:25;99473.44;;;3.73;100.00
51452;BME280;37521;52.020;-1.740;2023-02-22T00:35:54;99481.28;;;3.73;100.00
51452;BME280;37521;52.020;-1.740;2023-02-22T00:38:22;99476.16;;;3.70;100.00
51452;BME280;37521;52.020;-1.740;2023-02-22T00:40:50;99477.84;;;3.71;100.00
51452;BME280;37521;52.020;-1.740;2023-02-22T00:43:19;99477.84;;;3.71;100.00
51452;BME280;37521;52.020;-1.740;2023-02-22T00:45:48;99484.78;;;3.72;100.00
51452;BME280;37521;52.020;-1.740;2023-02-22T00:48:16;99480.50;;;3.70;100.00
51452;BME280;37521;52.020;-1.740;2023-02-22T00:50:45;99478.75;;;3.70;100.00
51452;BME280;37521;52.020;-1.740;2023-02-22T00:53:15;99474.44;;;3.69;100.00
51452;BME280;37521;52.020;-1.740;2023-02-22T00:55:43;99469.22;;;3.69;100.00
51452;BME280;37521;52.020;-1.740;2023-02-22T00:58:11;99465.69;;;3.70;100.00
51452;BME280;37521;52.020;-1.740;2023-02-22T01:00:40;99483.97;;;3.70;100.00
51452;BME280;37521;52.020;-1.740;2023-02-22T01:03:13;99478.81;;;3.67;100.00
51452;BME280;37521;52.020;-1.740;2023-02-22T01:05:42;99488.41;;;3.68;100.00
51452;BME280;37521;52.020;-1.740;2023-02-22T01:08:15;99476.19;;;3.69;100.00
51452;BME280;37521;52.020;-1.740;2023-02-22T01:10:43;99477.13;;;3.66;100.00
51452;BME280;37521;52.020;-1.740;2023-02-22T01:13:12;99477.22;;;3.63;100.00
51452;BME280;37521;52.020;-1.740;2023-02-22T01:15:41;99477.22;;;3.63;100.00
51452;BME280;37521;52.020;-1.740;2023-02-22T01:18:12;99482.38;;;3.65;100.00
51452;BME280;37521;52.020;-1.740;2023-02-22T01:20:43;99476.41;;;3.61;100.00
51452;BME280;37521;52.020;-1.740;2023-02-22T01:23:14;99469.44;;;3.60;100.00
51452;BME280;37521;52.020;-1.740;2023-02-22T01:25:43;99478.19;;;3.59;100.00
51452;BME280;37521;52.020;-1.740;2023-02-22T01:28:13;99467.78;;;3.58;100.00
51452;BME280;37521;52.020;-1.740;2023-02-22T01:30:41;99474.66;;;3.60;100.00
51452;BME280;37521;52.020;-1.740;2023-02-22T01:33:11;99467.66;;;3.62;100.00
51452;BME280;37521;52.020;-1.740;2023-02-22T01:35:42;99459.91;;;3.59;100.00
51452;BME280;37521;52.020;-1.740;2023-02-22T01:38:12;99457.28;;;3.59;100.00
51452;BME280;37521;52.020;-1.740;2023-02-22T01:40:45;99454.69;;;3.59;100.00
51452;BME280;37521;52.020;-1.740;2023-02-22T01:43:22;99449.50;;;3.58;100.00
51452;BME280;37521;52.020;-1.740;2023-02-22T01:45:56;99452.97;;;3.58;100.00
51452;BME280;37521;52.020;-1.740;2023-02-22T01:48:33;99448.66;;;3.57;100.00
51452;BME280;37521;52.020;-1.740;2023-02-22T01:51:06;99438.22;;;3.57;100.00
51452;BME280;37521;52.020;-1.740;2023-02-22T01:53:40;99440.88;;;3.55;100.00
51452;BME280;37521;52.020;-1.740;2023-02-22T01:56:13;99438.28;;;3.54;100.00
51452;BME280;37521;52.020;-1.740;2023-02-22T01:58:45;99443.50;;;3.54;100.00
51452;BME280;37521;52.020;-1.740;2023-02-22T02:01:14;99433.94;;;3.54;100.00
51452;BME280;37521;52.020;-1.740;2023-02-22T02:03:44;99443.47;;;3.55;100.00
51452;BME280;37521;52.020;-1.740;2023-02-22T02:06:15;99436.50;;;3.56;100.00
51452;BME280;37521;52.020;-1.740;2023-02-22T02:08:50;99438.22;;;3.57;100.00
51452;BME280;37521;52.020;-1.740;2023-02-22T02:11:22;99438.28;;;3.54;100.00
51452;BME280;37521;52.020;-1.740;2023-02-22T02:13:53;99440.03;;;3.53;100.00
51452;BME280;37521;52.020;-1.740;2023-02-22T02:16:23;99437.47;;;3.52;100.00
51452;BME280;37521;52.020;-1.740;2023-02-22T02:18:54;99435.75;;;3.51;100.00
51452;BME280;37521;52.020;-1.740;2023-02-22T02:21:38;99435.66;;;3.54;100.00
51452;BME280;37521;52.020;-1.740;2023-02-22T02:27:15;99427.03;;;3.52;100.00
51452;BME280;37521;52.020;-1.740;2023-02-22T02:30:15;99424.44;;;3.52;100.00
51452;BME280;37521;52.020;-1.740;2023-02-22T02:32:54;99429.66;;;3.52;100.00
51452;BME280;37521;52.020;-1.740;2023-02-22T02:35:33;99423.50;;;3.54;100.00
51452;BME280;37521;52.020;-1.740;2023-02-22T02:38:12;99422.63;;;3.54;100.00
51452;BME280;37521;52.020;-1.740;2023-02-22T02:40:46;99421.75;;;3.53;100.00
51452;BME280;37521;52.020;-1.740;2023-02-22T02:43:20;99427.97;;;3.49;100.00
51452;BME280;37521;52.020;-1.740;2023-02-22T02:45:50;99420.16;;;3.49;100.00
51452;BME280;37521;52.020;-1.740;2023-02-22T02:48:25;99426.13;;;3.53;100.00
51452;BME280;37521;52.020;-1.740;2023-02-22T02:50:57;99415.78;;;3.50;100.00
51452;BME280;37521;52.020;-1.740;2023-02-22T02:53:33;99425.31;;;3.51;100.00
51452;BME280;37521;52.020;-1.740;2023-02-22T02:56:02;99413.19;;;3.50;100.00
51452;BME280;37521;52.020;-1.740;2023-02-22T02:58:31;99412.31;;;3.49;100.00
51452;BME280;37521;52.020;-1.740;2023-02-22T03:01:00;99413.19;;;3.50;100.00
51452;BME280;37521;52.020;-1.740;2023-02-22T03:06:40;99400.97;;;3.50;100.00
51452;BME280;37521;52.020;-1.740;2023-02-22T03:09:21;99407.00;;;3.52;100.00
51452;BME280;37521;52.020;-1.740;2023-02-22T03:11:57;99407.06;;;3.51;100.00
51452;BME280;37521;52.020;-1.740;2023-02-22T03:14:37;99400.94;;;3.52;100.00
51452;BME280;37521;52.020;-1.740;2023-02-22T03:17:15;99403.53;;;3.52;100.00
51452;BME280;37521;52.020;-1.740;2023-02-22T03:19:57;99401.84;;;3.51;100.00
51452;BME280;37521;52.020;-1.740;2023-02-22T03:22:31;99400.97;;;3.50;100.00
51452;BME280;37521;52.020;-1.740;2023-02-22T03:25:06;99394.91;;;3.50;100.00
51452;BME280;37521;52.020;-1.740;2023-02-22T03:27:41;99395.75;;;3.50;100.00
51452;BME280;37521;52.020;-1.740;2023-02-22T03:30:17;99399.22;;;3.51;100.00
51452;BME280;37521;52.020;-1.740;2023-02-22T03:32:52;99396.63;;;3.51;100.00
51452;BME280;37521;52.020;-1.740;2023-02-22T03:35:30;99394.97;;;3.47;100.00
51452;BME280;37521;52.020;-1.740;2023-02-22T03:38:03;99398.50;;;3.46;100.00
51452;BME280;37521;52.020;-1.740;2023-02-22T03:40:37;99385.44;;;3.46;100.00
51452;BME280;37521;52.020;-1.740;2023-02-22T03:43:12;99377.59;;;3.46;100.00
51452;BME280;37521;52.020;-1.740;2023-02-22T03:45:45;99376.75;;;3.45;100.00
51452;BME280;37521;52.020;-1.740;2023-02-22T03:48:22;99371.63;;;3.42;100.00
51452;BME280;37521;52.020;-1.740;2023-02-22T03:50:54;99375.16;;;3.41;100.00
51452;BME280;37521;52.020;-1.740;2023-02-22T03:53:25;99373.41;;;3.42;100.00
51452;BME280;37521;52.020;-1.740;2023-02-22T03:55:54;99369.09;;;3.39;100.00
51452;BME280;37521;52.020;-1.740;2023-02-22T03:58:26;99354.38;;;3.37;100.00
51452;BME280;37521;52.020;-1.740;2023-02-22T04:00:58;99351.84;;;3.34;100.00
51452;BME280;37521;52.020;-1.740;2023-02-22T04:03:26;99351.91;;;3.32;100.00
51452;BME280;37521;52.020;-1.740;2023-02-22T04:05:55;99350.13;;;3.33;100.00
51452;BME280;37521;52.020;-1.740;2023-02-22T04:08:24;99345.78;;;3.33;100.00
51452;BME280;37521;52.020;-1.740;2023-02-22T04:10:52;99346.63;;;3.34;100.00
51452;BME280;37521;52.020;-1.740;2023-02-22T04:13:23;99350.06;;;3.36;100.00
51452;BME280;37521;52.020;-1.740;2023-02-22T04:15:53;99349.25;;;3.34;100.00
51452;BME280;37521;52.020;-1.740;2023-02-22T04:18:21;99348.38;;;3.35;100.00
51452;BME280;37521;52.020;-1.740;2023-02-22T04:20:50;99344.84;;;3.36;100.00
51452;BME280;37521;52.020;-1.740;2023-02-22T04:23:29;99348.38;;;3.35;100.00
51452;BME280;37521;52.020;-1.740;2023-02-22T04:25:58;99334.47;;;3.33;100.00
51452;BME280;37521;52.020;-1.740;2023-02-22T04:28:27;99323.97;;;3.36;100.00
51452;BME280;37521;52.020;-1.740;2023-02-22T04:31:06;99332.59;;;3.38;100.00
51452;BME280;37521;52.020;-1.740;2023-02-22T04:33:34;99329.09;;;3.39;100.00
51452;BME280;37521;52.020;-1.740;2023-02-22T04:36:03;99327.41;;;3.38;100.00
51452;BME280;37521;52.020;-1.740;2023-02-22T04:38:34;99320.47;;;3.37;100.00
51452;BME280;37521;52.020;-1.740;2023-02-22T04:41:03;99322.19;;;3.38;100.00
51452;BME280;37521;52.020;-1.740;2023-02-22T04:43:31;99330.06;;;3.36;100.00
51452;BME280;37521;52.020;-1.740;2023-02-22T04:46:06;99320.47;;;3.37;100.00
51452;BME280;37521;52.020;-1.740;2023-02-22T04:48:34;99319.56;;;3.38;100.00
51452;BME280;37521;52.020;-1.740;2023-02-22T04:51:03;99321.31;;;3.37;100.00
51452;BME280;37521;52.020;-1.740;2023-02-22T04:53:31;99323.13;;;3.35;100.00
51452;BME280;37521;52.020;-1.740;2023-02-22T04:56:01;99318.75;;;3.36;100.00
51452;BME280;37521;52.020;-1.740;2023-02-22T04:58:29;99321.38;;;3.34;100.00
51452;BME280;37521;52.020;-1.740;2023-02-22T05:00:58;99324.78;;;3.38;100.00
51452;BME280;37521;52.020;-1.740;2023-02-22T05:03:27;99322.19;;;3.38;100.00
51452;BME280;37521;52.020;-1.740;2023-02-22T05:05:55;99316.97;;;3.38;100.00
51452;BME280;37521;52.020;-1.740;2023-02-22T05:08:23;99315.25;;;3.37;100.00
51452;BME280;37521;52.020;-1.740;2023-02-22T05:10:51;99317.06;;;3.35;100.00
51452;BME280;37521;52.020;-1.740;2023-02-22T05:13:21;99308.41;;;3.33;100.00
51452;BME280;37521;52.020;-1.740;2023-02-22T05:15:49;99304.06;;;3.32;100.00
51452;BME280;37521;52.020;-1.740;2023-02-22T05:18:17;99308.41;;;3.33;100.00
51452;BME280;37521;52.020;-1.740;2023-02-22T05:20:46;99305.88;;;3.30;100.00
51452;BME280;37521;52.020;-1.740;2023-02-22T05:23:14;99305.94;;;3.28;100.00
51452;BME280;37521;52.020;-1.740;2023-02-22T05:25:42;99312.81;;;3.31;100.00
51452;BME280;37521;52.020;-1.740;2023-02-22T05:28:13;99309.41;;;3.28;100.00
51452;BME280;37521;52.020;-1.740;2023-02-22T05:30:42;99307.66;;;3.29;100.00
51452;BME280;37521;52.020;-1.740;2023-02-22T05:33:11;99297.16;;;3.31;100.00
51452;BME280;37521;52.020;-1.740;2023-02-22T05:35:39;99306.63;;;3.33;100.00
51452;BME280;37521;52.020;-1.740;2023-02-22T05:38:09;99297.97;;;3.33;100.00
51452;BME280;37521;52.020;-1.740;2023-02-22T05:40:37;99297.97;;;3.33;100.00
51452;BME280;37521;52.020;-1.740;2023-02-22T05:43:05;99302.28;;;3.34;100.00
51452;BME280;37521;52.020;-1.740;2023-02-22T05:45:34;99304.94;;;3.32;100.00
51452;BME280;37521;52.020;-1.740;2023-02-22T05:48:04;99311.09;;;3.30;100.00
51452;BME280;37521;52.020;-1.740;2023-02-22T05:50:33;99312.81;;;3.31;100.00
51452;BME280;37521;52.020;-1.740;2023-02-22T05:53:01;99313.63;;;3.33;100.00
51452;BME280;37521;52.020;-1.740;2023-02-22T05:55:29;99295.28;;;3.34;100.00
51452;BME280;37521;52.020;-1.740;2023-02-22T05:57:57;99296.19;;;3.35;100.00
51452;BME280;37521;52.020;-1.740;2023-02-22T06:00:29;99297.97;;;3.33;100.00
51452;BME280;37521;52.020;-1.740;2023-02-22T06:02:59;99294.53;;;3.31;100.00
51452;BME280;37521;52.020;-1.740;2023-02-22T06:05:29;99290.22;;;3.30;100.00
51452;BME280;37521;52.020;-1.740;2023-02-22T06:07:59;99294.44;;;3.34;100.00
51452;BME280;37521;52.020;-1.740;2023-02-22T06:10:27;99294.44;;;3.34;100.00
51452;BME280;37521;52.020;-1.740;2023-02-22T06:12:57;99290.06;;;3.36;100.00
51452;BME280;37521;52.020;-1.740;2023-02-22T06:15:26;99283.94;;;3.37;100.00
51452;BME280;37521;52.020;-1.740;2023-02-22T06:17:56;99278.66;;;3.38;100.00
51452;BME280;37521;52.020;-1.740;2023-02-22T06:20:25;99276.06;;;3.38;100.00
51452;BME280;37521;52.020;-1.740;2023-02-22T06:22:56;99282.19;;;3.37;100.00
51452;BME280;37521;52.020;-1.740;2023-02-22T06:25:26;99286.50;;;3.38;100.00
51452;BME280;37521;52.020;-1.740;2023-02-22T06:27:57;99283.84;;;3.40;100.00
51452;BME280;37521;52.020;-1.740;2023-02-22T06:30:26;99282.13;;;3.39;100.00
51452;BME280;37521;52.020;-1.740;2023-02-22T06:32:55;99286.44;;;3.41;100.00
51452;BME280;37521;52.020;-1.740;2023-02-22T06:35:23;99282.94;;;3.41;100.00
51452;BME280;37521;52.020;-1.740;2023-02-22T06:37:51;99278.63;;;3.40;100.00
51452;BME280;37521;52.020;-1.740;2023-02-22T06:40:21;99283.03;;;3.38;100.00
51452;BME280;37521;52.020;-1.740;2023-02-22T06:42:49;99274.34;;;3.37;100.00
51452;BME280;37521;52.020;-1.740;2023-02-22T06:45:17;99271.69;;;3.39;100.00
51452;BME280;37521;52.020;-1.740;2023-02-22T06:47:45;99276.91;;;3.39;100.00
51452;BME280;37521;52.020;-1.740;2023-02-22T06:50:18;99283.09;;;3.36;100.00
51452;BME280;37521;52.020;-1.740;2023-02-22T06:52:47;99283.88;;;3.38;100.00
51452;BME280;37521;52.020;-1.740;2023-02-22T06:55:17;99275.19;;;3.38;100.00
51452;BME280;37521;52.020;-1.740;2023-02-22T06:57:47;99271.69;;;3.39;100.00
51452;BME280;37521;52.020;-1.740;2023-02-22T07:00:16;99283.84;;;3.40;100.00
51452;BME280;37521;52.020;-1.740;2023-02-22T07:02:45;99278.63;;;3.40;100.00
51452;BME280;37521;52.020;-1.740;2023-02-22T07:05:15;99278.59;;;3.41;100.00
51452;BME280;37521;52.020;-1.740;2023-02-22T07:07:44;99276.84;;;3.42;100.00
51452;BME280;37521;52.020;-1.740;2023-02-22T07:10:18;99275.94;;;3.43;100.00
51452;BME280;37521;52.020;-1.740;2023-02-22T07:12:48;99280.31;;;3.42;100.00
51452;BME280;37521;52.020;-1.740;2023-02-22T07:15:18;99280.25;;;3.44;100.00
51452;BME280;37521;52.020;-1.740;2023-02-22T07:17:49;99283.66;;;3.46;100.00
51452;BME280;37521;52.020;-1.740;2023-02-22T07:20:18;99291.44;;;3.47;100.00
51452;BME280;37521;52.020;-1.740;2023-02-22T07:22:47;99288.03;;;3.45;100.00
51452;BME280;37521;52.020;-1.740;2023-02-22T07:25:16;99294.94;;;3.46;100.00
51452;BME280;37521;52.020;-1.740;2023-02-22T07:27:44;99304.59;;;3.44;100.00
51452;BME280;37521;52.020;-1.740;2023-02-22T07:30:17;99297.53;;;3.48;100.00
51452;BME280;37521;52.020;-1.740;2023-02-22T07:32:46;99317.47;;;3.50;100.00
51452;BME280;37521;52.020;-1.740;2023-02-22T07:35:15;99302.72;;;3.49;100.00
51452;BME280;37521;52.020;-1.740;2023-02-22T07:37:44;99308.72;;;3.51;100.00
51452;BME280;37521;52.020;-1.740;2023-02-22T07:40:14;99302.56;;;3.54;100.00
51452;BME280;37521;52.020;-1.740;2023-02-22T07:42:51;99298.22;;;3.54;100.00
51452;BME280;37521;52.020;-1.740;2023-02-22T07:45:22;99304.19;;;3.58;100.00
51452;BME280;37521;52.020;-1.740;2023-02-22T07:47:51;99317.13;;;3.63;100.00
51452;BME280;37521;52.020;-1.740;2023-02-22T07:50:21;99308.38;;;3.64;100.00
51452;BME280;37521;52.020;-1.740;2023-02-22T07:52:52;99309.13;;;3.67;100.00
51452;BME280;37521;52.020;-1.740;2023-02-22T07:55:22;99323.75;;;3.73;100.00
51452;BME280;37521;52.020;-1.740;2023-02-22T07:57:52;99323.69;;;3.76;100.00
51452;BME280;37521;52.020;-1.740;2023-02-22T08:00:24;99315.69;;;3.80;100.00
51452;BME280;37521;52.020;-1.740;2023-02-22T08:02:53;99323.53;;;3.80;100.00
51452;BME280;37521;52.020;-1.740;2023-02-22T08:05:23;99320.84;;;3.83;100.00
51452;BME280;37521;52.020;-1.740;2023-02-22T08:07:52;99331.19;;;3.87;100.00
51452;BME280;37521;52.020;-1.740;2023-02-22T08:10:21;99330.19;;;3.91;100.00
51452;BME280;37521;52.020;-1.740;2023-02-22T08:12:50;99334.47;;;3.93;100.00
51452;BME280;37521;52.020;-1.740;2023-02-22T08:15:22;99337.00;;;3.96;100.00
51452;BME280;37521;52.020;-1.740;2023-02-22T08:17:51;99328.22;;;3.99;100.00
51452;BME280;37521;52.020;-1.740;2023-02-22T08:20:20;99328.13;;;4.02;100.00
51452;BME280;37521;52.020;-1.740;2023-02-22T08:22:49;99329.72;;;4.06;100.00
51452;BME280;37521;52.020;-1.740;2023-02-22T08:25:19;99323.53;;;4.10;100.00
51452;BME280;37521;52.020;-1.740;2023-02-22T08:27:47;99317.25;;;4.16;100.00
51452;BME280;37521;52.020;-1.740;2023-02-22T08:30:18;99328.44;;;4.19;100.00
51452;BME280;37521;52.020;-1.740;2023-02-22T08:32:49;99313.56;;;4.21;100.00
51452;BME280;37521;52.020;-1.740;2023-02-22T08:35:19;99318.72;;;4.24;100.00
51452;BME280;37521;52.020;-1.740;2023-02-22T08:37:51;99316.81;;;4.29;100.00
51452;BME280;37521;52.020;-1.740;2023-02-22T08:40:22;99314.09;;;4.32;100.00
51452;BME280;37521;52.020;-1.740;2023-02-22T08:42:50;99316.63;;;4.35;100.00
51452;BME280;37521;52.020;-1.740;2023-02-22T08:45:19;99324.28;;;4.42;100.00
51452;BME280;37521;52.020;-1.740;2023-02-22T08:47:48;99332.78;;;4.47;100.00
51452;BME280;37521;52.020;-1.740;2023-02-22T08:50:18;99330.09;;;4.50;100.00
51452;BME280;37521;52.020;-1.740;2023-02-22T08:52:48;99335.16;;;4.54;100.00
51452;BME280;37521;52.020;-1.740;2023-02-22T08:55:18;99336.72;;;4.60;100.00
51452;BME280;37521;52.020;-1.740;2023-02-22T08:57:47;99343.63;;;4.62;100.00
51452;BME280;37521;52.020;-1.740;2023-02-22T09:00:16;99338.34;;;4.64;100.00
51452;BME280;37521;52.020;-1.740;2023-02-22T09:02:45;99337.38;;;4.67;100.00
51452;BME280;37521;52.020;-1.740;2023-02-22T09:05:14;99337.22;;;4.71;100.00
51452;BME280;37521;52.020;-1.740;2023-02-22T09:07:43;99338.94;;;4.72;100.00
51452;BME280;37521;52.020;-1.740;2023-02-22T09:10:13;99337.97;;;4.75;100.00
51452;BME280;37521;52.020;-1.740;2023-02-22T09:12:43;99339.66;;;4.77;100.00
51452;BME280;37521;52.020;-1.740;2023-02-22T09:15:14;99340.56;;;4.76;100.00
51452;BME280;37521;52.020;-1.740;2023-02-22T09:17:42;99339.66;;;4.77;100.00
51452;BME280;37521;52.020;-1.740;2023-02-22T09:20:11;99341.28;;;4.80;100.00
51452;BME280;37521;52.020;-1.740;2023-02-22T09:22:43;99336.81;;;4.83;100.00
51452;BME280;37521;52.020;-1.740;2023-02-22T09:25:11;99341.09;;;4.86;100.00
51452;BME280;37521;52.020;-1.740;2023-02-22T09:27:43;99347.03;;;4.91;100.00
51452;BME280;37521;52.020;-1.740;2023-02-22T09:30:17;99349.38;;;4.99;100.00
51452;BME280;37521;52.020;-1.740;2023-02-22T09:32:46;99344.94;;;5.01;100.00
51452;BME280;37521;52.020;-1.740;2023-02-22T09:35:14;99350.94;;;5.04;100.00
51452;BME280;37521;52.020;-1.740;2023-02-22T09:37:44;99344.63;;;5.10;100.00
51452;BME280;37521;52.020;-1.740;2023-02-22T09:40:15;99347.97;;;5.15;100.00
51452;BME280;37521;52.020;-1.740;2023-02-22T09:43:01;99346.00;;;5.20;100.00
51452;BME280;37521;52.020;-1.740;2023-02-22T09:45:35;99358.94;;;5.25;100.00
51452;BME280;37521;52.020;-1.740;2023-02-22T09:48:06;99354.56;;;5.25;100.00
51452;BME280;37521;52.020;-1.740;2023-02-22T09:50:48;99359.00;;;5.23;100.00
51452;BME280;37521;52.020;-1.740;2023-02-22T09:53:24;99364.34;;;5.20;100.00
51452;BME280;37521;52.020;-1.740;2023-02-22T09:55:58;99367.88;;;5.19;100.00
51452;BME280;37521;52.020;-1.740;2023-02-22T09:58:31;99359.91;;;5.22;100.00
51452;BME280;37521;52.020;-1.740;2023-02-22T10:01:11;99364.19;;;5.25;100.00
51452;BME280;37521;52.020;-1.740;2023-02-22T10:03:49;99370.31;;;5.24;100.00
51452;BME280;37521;52.020;-1.740;2023-02-22T10:06:20;99368.66;;;5.21;100.00
51452;BME280;37521;52.020;-1.740;2023-02-22T10:08:54;99372.09;;;5.23;100.00
51452;BME280;37521;52.020;-1.740;2023-02-22T10:11:34;99377.41;;;5.20;100.00
51452;BME280;37521;52.020;-1.740;2023-02-22T10:14:20;99368.78;;;5.18;100.00
51452;BME280;37521;52.020;-1.740;2023-02-22T10:16:58;99372.38;;;5.15;100.00
51452;BME280;37521;52.020;-1.740;2023-02-22T10:19:37;99371.50;;;5.15;100.00
51452;BME280;37521;52.020;-1.740;2023-02-22T10:22:24;99377.31;;;5.23;100.00
51452;BME280;37521;52.020;-1.740;2023-02-22T10:24:59;99377.91;;;5.31;100.00
51452;BME280;37521;52.020;-1.740;2023-02-22T10:27:32;99375.06;;;5.37;100.00
51452;BME280;37521;52.020;-1.740;2023-02-22T10:30:06;99376.78;;;5.38;100.00
51452;BME280;37521;52.020;-1.740;2023-02-22T10:32:55;99382.78;;;5.42;100.00
51452;BME280;37521;52.020;-1.740;2023-02-22T10:35:28;99390.66;;;5.40;100.00
51452;BME280;37521;52.020;-1.740;2023-02-22T10:38:01;99386.41;;;5.38;100.00
51452;BME280;37521;52.020;-1.740;2023-02-22T10:40:34;99390.88;;;5.34;100.00
51452;BME280;37521;52.020;-1.740;2023-02-22T10:43:07;99399.66;;;5.33;100.00
51452;BME280;37521;52.020;-1.740;2023-02-22T10:45:37;99405.09;;;5.27;100.00
51452;BME280;37521;52.020;-1.740;2023-02-22T10:48:07;99397.34;;;5.24;100.00
51452;BME280;37521;52.020;-1.740;2023-02-22T10:50:40;99409.59;;;5.24;100.00
51452;BME280;37521;52.020;-1.740;2023-02-22T10:53:10;99409.78;;;5.17;100.00
51452;BME280;37521;52.020;-1.740;2023-02-22T10:58:48;99409.22;;;5.08;100.00
51452;BME280;37521;52.020;-1.740;2023-02-22T11:01:17;99415.16;;;5.13;100.00
51452;BME280;37521;52.020;-1.740;2023-02-22T11:03:55;99415.88;;;5.18;100.00
51452;BME280;37521;52.020;-1.740;2023-02-22T11:06:24;99416.59;;;5.23;100.00
51452;BME280;37521;52.020;-1.740;2023-02-22T11:09:03;99419.00;;;5.29;100.00
51452;BME280;37521;52.020;-1.740;2023-02-22T11:11:32;99417.38;;;5.25;100.00
51452;BME280;37521;52.020;-1.740;2023-02-22T11:14:02;99421.06;;;5.19;100.00
51452;BME280;37521;52.020;-1.740;2023-02-22T11:16:34;99425.59;;;5.14;100.00
51452;BME280;37521;52.020;-1.740;2023-02-22T11:19:11;99420.53;;;5.10;100.00
51452;BME280;37521;52.020;-1.740;2023-02-22T11:21:47;99421.53;;;5.06;100.00
51452;BME280;37521;52.020;-1.740;2023-02-22T11:24:18;99430.41;;;5.02;100.00
51452;BME280;37521;52.020;-1.740;2023-02-22T11:26:53;99441.06;;;4.96;100.00
51452;BME280;37521;52.020;-1.740;2023-02-22T11:29:27;99442.25;;;4.85;100.00
51452;BME280;37521;52.020;-1.740;2023-02-22T11:32:00;99437.22;;;4.79;100.00
51452;BME280;37521;52.020;-1.740;2023-02-22T11:34:32;99447.91;;;4.72;100.00
51452;BME280;37521;52.020;-1.740;2023-02-22T11:37:28;99450.66;;;4.67;100.00
51452;BME280;37521;52.020;-1.740;2023-02-22T11:40:11;99447.25;;;4.65;100.00
51452;BME280;37521;52.020;-1.740;2023-02-22T11:42:43;99444.75;;;4.62;100.00
51452;BME280;37521;52.020;-1.740;2023-02-22T11:45:16;99450.78;;;4.64;100.00
51452;BME280;37521;52.020;-1.740;2023-02-22T11:47:51;99448.97;;;4.66;100.00
51452;BME280;37521;52.020;-1.740;2023-02-22T11:50:26;99451.31;;;4.75;100.00
51452;BME280;37521;52.020;-1.740;2023-02-22T11:53:08;99459.66;;;4.86;100.00
51452;BME280;37521;52.020;-1.740;2023-02-22T11:55:45;99463.69;;;4.97;100.00
51452;BME280;37521;52.020;-1.740;2023-02-22T11:58:29;99461.72;;;5.30;100.00
51452;BME280;37521;52.020;-1.740;2023-02-22T12:01:08;99457.69;;;5.71;100.00
51452;BME280;37521;52.020;-1.740;2023-02-22T12:03:55;99462.16;;;5.67;100.00
51452;BME280;37521;52.020;-1.740;2023-02-22T12:06:36;99450.81;;;6.17;100.00
51452;BME280;37521;52.020;-1.740;2023-02-22T12:09:12;99452.84;;;6.32;100.00
51452;BME280;37521;52.020;-1.740;2023-02-22T12:11:54;99458.22;;;6.06;100.00
51452;BME280;37521;52.020;-1.740;2023-02-22T12:14:29;99447.84;;;5.78;100.00
51452;BME280;37521;52.020;-1.740;2023-02-22T12:17:18;99456.63;;;5.52;100.00
51452;BME280;37521;52.020;-1.740;2023-02-22T12:19:52;99455.72;;;5.26;100.00
51452;BME280;37521;52.020;-1.740;2023-02-22T12:22:25;99449.38;;;5.08;100.00
51452;BME280;37521;52.020;-1.740;2023-02-22T12:24:57;99440.63;;;5.08;100.00
51452;BME280;37521;52.020;-1.740;2023-02-22T12:27:39;99457.19;;;5.85;100.00
51452;BME280;37521;52.020;-1.740;2023-02-22T12:30:14;99439.28;;;6.88;100.00
51452;BME280;37521;52.020;-1.740;2023-02-22T12:32:47;99444.66;;;7.68;100.00
51452;BME280;37521;52.020;-1.740;2023-02-22T12:35:20;99446.13;;;8.14;100.00
51452;BME280;37521;52.020;-1.740;2023-02-22T12:37:57;99444.59;;;8.48;100.00
51452;BME280;37521;52.020;-1.740;2023-02-22T12:40:32;99441.34;;;8.43;100.00
51452;BME280;37521;52.020;-1.740;2023-02-22T12:43:07;99452.25;;;8.34;100.00
51452;BME280;37521;52.020;-1.740;2023-02-22T12:45:45;99439.84;;;8.56;100.00
51452;BME280;37521;52.020;-1.740;2023-02-22T12:48:26;99444.47;;;8.70;100.00
51452;BME280;37521;52.020;-1.740;2023-02-22T12:51:02;99454.63;;;8.01;100.00
51452;BME280;37521;52.020;-1.740;2023-02-22T12:53:36;99446.59;;;7.24;100.00
51452;BME280;37521;52.020;-1.740;2023-02-22T12:56:15;99466.38;;;6.67;100.00
51452;BME280;37521;52.020;-1.740;2023-02-22T12:58:53;99466.19;;;6.26;100.00
51452;BME280;37521;52.020;-1.740;2023-02-22T13:01:27;99465.16;;;6.07;100.00
51452;BME280;37521;52.020;-1.740;2023-02-22T13:04:01;99460.88;;;6.95;100.00
51452;BME280;37521;52.020;-1.740;2023-02-22T13:06:55;99463.09;;;8.07;100.00
51452;BME280;37521;52.020;-1.740;2023-02-22T13:12:29;99458.22;;;8.18;100.00
51452;BME280;37521;52.020;-1.740;2023-02-22T13:15:04;99453.22;;;7.53;100.00
51452;BME280;37521;52.020;-1.740;2023-02-22T13:17:40;99460.88;;;7.17;100.00
51452;BME280;37521;52.020;-1.740;2023-02-22T13:20:15;99470.66;;;6.91;100.00
51452;BME280;37521;52.020;-1.740;2023-02-22T13:22:49;99473.91;;;6.76;100.00
51452;BME280;37521;52.020;-1.740;2023-02-22T13:25:22;99479.16;;;6.52;100.00
51452;BME280;37521;52.020;-1.740;2023-02-22T13:27:56;99484.88;;;6.17;100.00